sensor_id;sensor_type;location;lat;lon;timestamp;P1;durP1;ratioP1;P2;durP2;ratioP2
84917;SDS011;75182;51.736;5.318;2024-03-22T00:08:57;42.65;;;22.75;;
84917;SDS011;75182;51.736;5.318;2024-03-22T00:18:57;40.00;;;19.10;;
84917;SDS011;75182;51.736;5.318;2024-03-22T00:28:58;40.75;;;18.65;;
84917;SDS011;75182;51.736;5.318;2024-03-22T00:38:58;40.47;;;17.38;;
84917;SDS011;75182;51.736;5.318;2024-03-22T00:48:58;40.40;;;19.70;;
84917;SDS011;75182;51.736;5.318;2024-03-22T00:58:58;43.08;;;21.50;;
84917;SDS011;75182;51.736;5.318;2024-03-22T01:08:59;41.45;;;19.88;;
84917;SDS011;75182;51.736;5.318;2024-03-22T01:18:59;37.70;;;18.60;;
84917;SDS011;75182;51.736;5.318;2024-03-22T01:28:59;39.42;;;18.40;;
84917;SDS011;75182;51.736;5.318;2024-03-22T01:39:00;38.53;;;18.95;;
84917;SDS011;75182;51.736;5.318;2024-03-22T01:49:00;30.98;;;15.15;;
84917;SDS011;75182;51.736;5.318;2024-03-22T01:59:00;42.10;;;19.17;;
84917;SDS011;75182;51.736;5.318;2024-03-22T02:09:01;39.60;;;18.92;;
84917;SDS011;75182;51.736;5.318;2024-03-22T02:19:04;42.17;;;21.67;;
84917;SDS011;75182;51.736;5.318;2024-03-22T02:29:04;36.05;;;18.55;;
84917;SDS011;75182;51.736;5.318;2024-03-22T02:39:05;34.80;;;18.63;;
84917;SDS011;75182;51.736;5.318;2024-03-22T02:49:05;39.50;;;25.05;;
84917;SDS011;75182;51.736;5.318;2024-03-22T02:59:05;37.42;;;24.08;;
84917;SDS011;75182;51.736;5.318;2024-03-22T03:09:05;34.85;;;19.55;;
84917;SDS011;75182;51.736;5.318;2024-03-22T03:19:08;33.83;;;18.73;;
84917;SDS011;75182;51.736;5.318;2024-03-22T03:29:08;33.88;;;18.77;;
84917;SDS011;75182;51.736;5.318;2024-03-22T03:39:09;36.55;;;19.15;;
84917;SDS011;75182;51.736;5.318;2024-03-22T03:49:09;34.45;;;22.63;;
84917;SDS011;75182;51.736;5.318;2024-03-22T03:59:10;28.30;;;15.63;;
84917;SDS011;75182;51.736;5.318;2024-03-22T04:09:10;28.80;;;15.10;;
84917;SDS011;75182;51.736;5.318;2024-03-22T04:19:11;28.65;;;17.27;;
84917;SDS011;75182;51.736;5.318;2024-03-22T04:29:11;26.10;;;15.48;;
84917;SDS011;75182;51.736;5.318;2024-03-22T04:39:11;28.40;;;17.95;;
84917;SDS011;75182;51.736;5.318;2024-03-22T04:49:12;24.33;;;13.57;;
84917;SDS011;75182;51.736;5.318;2024-03-22T04:59:12;24.13;;;12.82;;
84917;SDS011;75182;51.736;5.318;2024-03-22T05:09:12;26.20;;;14.88;;
84917;SDS011;75182;51.736;5.318;2024-03-22T05:19:13;25.45;;;13.32;;
84917;SDS011;75182;51.736;5.318;2024-03-22T05:29:13;26.85;;;14.68;;
84917;SDS011;75182;51.736;5.318;2024-03-22T05:39:14;27.83;;;16.48;;
84917;SDS011;75182;51.736;5.318;2024-03-22T05:49:15;27.95;;;16.88;;
84917;SDS011;75182;51.736;5.318;2024-03-22T05:59:16;29.27;;;16.10;;
84917;SDS011;75182;51.736;5.318;2024-03-22T06:09:16;25.30;;;14.07;;
84917;SDS011;75182;51.736;5.318;2024-03-22T06:19:24;30.52;;;16.10;;
84917;SDS011;75182;51.736;5.318;2024-03-22T06:29:24;29.27;;;17.65;;
84917;SDS011;75182;51.736;5.318;2024-03-22T06:39:24;26.60;;;15.70;;
84917;SDS011;75182;51.736;5.318;2024-03-22T06:49:25;29.77;;;18.75;;
84917;SDS011;75182;51.736;5.318;2024-03-22T06:59:25;24.00;;;13.02;;
84917;SDS011;75182;51.736;5.318;2024-03-22T07:09:26;25.92;;;15.30;;
84917;SDS011;75182;51.736;5.318;2024-03-22T07:19:29;27.50;;;18.35;;
84917;SDS011;75182;51.736;5.318;2024-03-22T07:29:30;26.77;;;16.52;;
84917;SDS011;75182;51.736;5.318;2024-03-22T07:39:30;28.38;;;19.63;;
84917;SDS011;75182;51.736;5.318;2024-03-22T07:49:30;24.95;;;16.17;;
84917;SDS011;75182;51.736;5.318;2024-03-22T07:59:31;25.77;;;17.20;;
84917;SDS011;75182;51.736;5.318;2024-03-22T08:09:32;26.40;;;16.17;;
84917;SDS011;75182;51.736;5.318;2024-03-22T08:19:32;24.38;;;12.65;;
84917;SDS011;75182;51.736;5.318;2024-03-22T08:29:32;22.13;;;12.35;;
84917;SDS011;75182;51.736;5.318;2024-03-22T08:39:32;23.67;;;13.18;;
84917;SDS011;75182;51.736;5.318;2024-03-22T08:49:33;21.17;;;14.38;;
84917;SDS011;75182;51.736;5.318;2024-03-22T08:59:33;23.35;;;12.93;;
84917;SDS011;75182;51.736;5.318;2024-03-22T09:09:35;21.67;;;12.48;;
84917;SDS011;75182;51.736;5.318;2024-03-22T09:19:35;20.65;;;11.00;;
84917;SDS011;75182;51.736;5.318;2024-03-22T09:29:36;20.48;;;11.45;;
84917;SDS011;75182;51.736;5.318;2024-03-22T09:39:38;24.40;;;14.48;;
84917;SDS011;75182;51.736;5.318;2024-03-22T09:49:38;21.43;;;10.90;;
84917;SDS011;75182;51.736;5.318;2024-03-22T09:59:39;24.77;;;15.17;;
84917;SDS011;75182;51.736;5.318;2024-03-22T10:09:39;24.10;;;13.10;;
84917;SDS011;75182;51.736;5.318;2024-03-22T10:19:40;24.63;;;15.48;;
84917;SDS011;75182;51.736;5.318;2024-03-22T10:29:41;25.02;;;15.10;;
84917;SDS011;75182;51.736;5.318;2024-03-22T10:39:42;28.10;;;16.90;;
84917;SDS011;75182;51.736;5.318;2024-03-22T10:49:43;21.42;;;12.45;;
84917;SDS011;75182;51.736;5.318;2024-03-22T10:59:48;21.13;;;11.07;;
84917;SDS011;75182;51.736;5.318;2024-03-22T11:09:52;19.95;;;13.50;;
84917;SDS011;75182;51.736;5.318;2024-03-22T11:19:52;16.63;;;9.90;;
84917;SDS011;75182;51.736;5.318;2024-03-22T11:29:52;20.45;;;10.93;;
84917;SDS011;75182;51.736;5.318;2024-03-22T11:39:54;14.73;;;8.50;;
84917;SDS011;75182;51.736;5.318;2024-03-22T11:49:55;13.30;;;8.18;;
84917;SDS011;75182;51.736;5.318;2024-03-22T11:59:58;13.98;;;8.32;;
84917;SDS011;75182;51.736;5.318;2024-03-22T12:20:00;10.68;;;7.60;;
84917;SDS011;75182;51.736;5.318;2024-03-22T12:30:00;9.32;;;6.35;;
84917;SDS011;75182;51.736;5.318;2024-03-22T12:40:00;8.57;;;6.10;;
84917;SDS011;75182;51.736;5.318;2024-03-22T12:50:01;7.75;;;5.45;;
84917;SDS011;75182;51.736;5.318;2024-03-22T13:00:01;6.47;;;4.00;;
84917;SDS011;75182;51.736;5.318;2024-03-22T13:10:01;6.50;;;3.85;;
84917;SDS011;75182;51.736;5.318;2024-03-22T13:20:02;11.40;;;6.90;;
84917;SDS011;75182;51.736;5.318;2024-03-22T13:30:10;15.93;;;6.75;;
84917;SDS011;75182;51.736;5.318;2024-03-22T13:40:11;12.45;;;5.90;;
84917;SDS011;75182;51.736;5.318;2024-03-22T13:50:11;12.60;;;6.10;;
84917;SDS011;75182;51.736;5.318;2024-03-22T14:00:12;14.00;;;6.97;;
84917;SDS011;75182;51.736;5.318;2024-03-22T14:10:14;12.23;;;7.03;;
84917;SDS011;75182;51.736;5.318;2024-03-22T14:20:16;12.13;;;6.70;;
84917;SDS011;75182;51.736;5.318;2024-03-22T14:30:16;12.75;;;7.60;;
84917;SDS011;75182;51.736;5.318;2024-03-22T14:40:17;11.48;;;5.65;;
84917;SDS011;75182;51.736;5.318;2024-03-22T14:50:18;8.55;;;4.70;;
84917;SDS011;75182;51.736;5.318;2024-03-22T15:00:18;10.13;;;4.57;;
84917;SDS011;75182;51.736;5.318;2024-03-22T15:10:19;12.70;;;4.60;;
84917;SDS011;75182;51.736;5.318;2024-03-22T15:20:20;7.20;;;2.70;;
84917;SDS011;75182;51.736;5.318;2024-03-22T15:30:21;12.10;;;4.13;;
84917;SDS011;75182;51.736;5.318;2024-03-22T15:40:22;15.60;;;4.47;;
84917;SDS011;75182;51.736;5.318;2024-03-22T15:50:22;16.90;;;4.55;;
84917;SDS011;75182;51.736;5.318;2024-03-22T16:00:22;12.95;;;4.65;;
84917;SDS011;75182;51.736;5.318;2024-03-22T16:10:23;15.50;;;5.70;;
84917;SDS011;75182;51.736;5.318;2024-03-22T16:20:23;12.23;;;5.43;;
84917;SDS011;75182;51.736;5.318;2024-03-22T16:30:24;17.35;;;6.38;;
84917;SDS011;75182;51.736;5.318;2024-03-22T16:40:24;17.90;;;7.78;;
84917;SDS011;75182;51.736;5.318;2024-03-22T16:50:24;17.77;;;7.65;;
84917;SDS011;75182;51.736;5.318;2024-03-22T17:00:25;22.30;;;7.20;;
84917;SDS011;75182;51.736;5.318;2024-03-22T17:10:26;12.88;;;3.85;;
84917;SDS011;75182;51.736;5.318;2024-03-22T17:20:26;13.00;;;3.30;;
84917;SDS011;75182;51.736;5.318;2024-03-22T17:30:26;13.40;;;2.60;;
84917;SDS011;75182;51.736;5.318;2024-03-22T17:40:26;11.40;;;2.67;;
84917;SDS011;75182;51.736;5.318;2024-03-22T17:50:28;10.60;;;2.45;;
84917;SDS011;75182;51.736;5.318;2024-03-22T18:00:28;16.60;;;2.65;;
84917;SDS011;75182;51.736;5.318;2024-03-22T18:10:28;14.30;;;2.60;;
84917;SDS011;75182;51.736;5.318;2024-03-22T18:20:29;13.05;;;2.42;;
84917;SDS011;75182;51.736;5.318;2024-03-22T18:30:29;11.63;;;2.47;;
84917;SDS011;75182;51.736;5.318;2024-03-22T18:40:29;14.40;;;3.00;;
84917;SDS011;75182;51.736;5.318;2024-03-22T18:50:29;11.43;;;2.85;;
84917;SDS011;75182;51.736;5.318;2024-03-22T19:00:30;14.10;;;3.53;;
84917;SDS011;75182;51.736;5.318;2024-03-22T19:10:30;13.95;;;3.97;;
84917;SDS011;75182;51.736;5.318;2024-03-22T19:20:30;15.20;;;3.78;;
84917;SDS011;75182;51.736;5.318;2024-03-22T19:30:31;17.13;;;3.45;;
84917;SDS011;75182;51.736;5.318;2024-03-22T19:40:32;12.50;;;3.10;;
84917;SDS011;75182;51.736;5.318;2024-03-22T19:50:33;13.73;;;4.00;;
84917;SDS011;75182;51.736;5.318;2024-03-22T20:00:33;14.07;;;3.97;;
84917;SDS011;75182;51.736;5.318;2024-03-22T20:10:33;17.20;;;4.22;;
84917;SDS011;75182;51.736;5.318;2024-03-22T20:20:34;16.33;;;4.22;;
84917;SDS011;75182;51.736;5.318;2024-03-22T20:30:34;17.55;;;4.70;;
84917;SDS011;75182;51.736;5.318;2024-03-22T20:40:34;16.00;;;4.25;;
